Time;durP1;ratioP1;P1;durP2;ratioP2;P2;SDS_P1;SDS_P2;PMS_P1;PMS_P2;Temp;Humidity;BMP_temperature;BMP_pressure;BME280_temperature;BME280_humidity;BME280_pressure;Samples;Min_cycle;Max_cycle;Signal;HPM_P1;HPM_P2
2022/05/05 00:01:28;;;;;;;13.95;5.57;;;;;;;7.03;77.79;96807.78;4994652;28;20034;-65
2022/05/05 00:03:54;;;;;;;5.93;5.32;;;;;;;7.01;77.52;96805.19;4997713;28;20022;-62
2022/05/05 00:06:20;;;;;;;7.50;5.18;;;;;;;7.04;77.42;96796.47;4997599;28;20026;-62
2022/05/05 00:08:45;;;;;;;9.60;5.32;;;;;;;7.05;77.01;96799.03;4997415;28;20044;-64
2022/05/05 00:16:39;;;;;;;5.97;4.70;;;;;;;7.00;76.29;96806.09;4997456;28;20037;-64
2022/05/05 00:19:05;;;;;;;5.57;4.85;;;;;;;7.01;75.95;96809.56;4997294;28;20014;-63
2022/05/05 00:21:30;;;;;;;5.20;4.38;;;;;;;7.00;76.12;96805.22;4997338;28;20046;-65
2022/05/05 00:23:56;;;;;;;8.75;5.72;;;;;;;7.00;76.15;96806.09;4997260;28;20077;-62
2022/05/05 00:26:22;;;;;;;10.02;5.68;;;;;;;6.99;77.10;96808.72;4997243;28;20381;-65
2022/05/05 00:28:47;;;;;;;6.10;4.80;;;;;;;6.94;76.90;96806.22;4997054;28;20025;-62
2022/05/05 00:31:13;;;;;;;6.10;4.60;;;;;;;6.93;76.41;96807.09;4997129;28;20027;-65
2022/05/05 00:33:38;;;;;;;5.50;5.00;;;;;;;6.90;76.18;96801.97;4997033;28;20030;-65
2022/05/05 00:36:05;;;;;;;6.47;4.72;;;;;;;6.86;76.42;96802.91;4997038;28;20033;-61
2022/05/05 00:38:30;;;;;;;5.60;5.10;;;;;;;6.83;76.93;96802.06;4996870;28;20022;-63
2022/05/05 00:40:56;;;;;;;6.95;6.07;;;;;;;6.81;76.88;96806.44;4997056;28;20026;-66
2022/05/05 00:43:22;;;;;;;5.90;5.13;;;;;;;6.82;77.04;96802.09;4996713;28;20121;-63
2022/05/05 00:45:48;;;;;;;6.10;5.00;;;;;;;6.83;77.20;96798.59;4996849;28;20068;-64
2022/05/05 00:48:14;;;;;;;8.48;4.50;;;;;;;6.84;76.56;96797.72;4996731;28;20050;-66
2022/05/05 00:50:40;;;;;;;6.20;5.45;;;;;;;6.85;76.86;96801.16;4996786;28;20030;-63
2022/05/05 00:53:06;;;;;;;5.47;4.97;;;;;;;6.85;77.23;96799.44;4996766;28;20097;-62
2022/05/05 00:55:39;;;;;;;7.00;5.30;;;;;;;6.81;77.24;96809.03;4996669;28;20076;-63
2022/05/05 00:58:05;;;;;;;10.95;5.88;;;;;;;6.77;77.43;96804.78;4996642;28;20089;-65
2022/05/05 01:00:32;;;;;;;8.13;5.65;;;;;;;6.77;77.00;96799.56;4996668;28;20022;-62
2022/05/05 01:02:59;;;;;;;7.25;5.13;;;;;;;6.81;77.11;96797.78;4996563;28;20018;-63
2022/05/05 01:05:27;;;;;;;5.82;4.60;;;;;;;6.81;76.79;96803.81;4996432;28;20117;-62
2022/05/05 01:07:56;;;;;;;5.70;4.65;;;;;;;6.74;76.58;96798.78;4996324;28;20033;-64
2022/05/05 01:10:22;;;;;;;4.63;4.20;;;;;;;6.68;76.29;96798.00;4996378;28;20038;-63
2022/05/05 01:12:48;;;;;;;5.63;4.68;;;;;;;6.59;75.72;96800.75;4995138;28;20026;-65
2022/05/05 01:15:14;;;;;;;7.85;4.47;;;;;;;6.58;75.63;96814.66;4996390;28;20029;-64
2022/05/05 01:17:39;;;;;;;6.10;4.85;;;;;;;6.50;76.27;96800.94;4996176;28;20061;-65
2022/05/05 01:20:10;;;;;;;5.90;5.07;;;;;;;6.50;76.20;96812.19;4996320;28;20022;-65
2022/05/05 01:22:35;;;;;;;7.35;5.35;;;;;;;6.49;77.13;96817.41;4996254;28;20023;-62
2022/05/05 01:30:29;;;;;;;7.38;6.18;;;;;;;6.42;77.50;96821.88;4996074;28;20551;-65
2022/05/05 01:32:54;;;;;;;5.68;4.97;;;;;;;6.34;77.72;96822.00;4978462;28;20030;-64
2022/05/05 01:35:23;;;;;;;5.53;4.70;;;;;;;6.34;77.59;96818.53;4996016;28;20051;-62
2022/05/05 01:37:48;;;;;;;5.63;5.10;;;;;;;6.32;77.67;96813.34;4995860;28;20038;-62
2022/05/05 01:40:14;;;;;;;6.28;5.68;;;;;;;6.30;77.69;96813.38;4995778;28;20034;-64
2022/05/05 01:42:40;;;;;;;9.80;5.70;;;;;;;6.21;78.22;96816.16;4995864;28;20481;-66
2022/05/05 01:45:06;;;;;;;7.28;5.50;;;;;;;6.19;79.33;96812.69;4995618;28;20397;-65
2022/05/05 01:47:31;;;;;;;6.00;5.40;;;;;;;6.23;79.69;96805.72;4978292;28;20026;-62
2022/05/05 01:49:59;;;;;;;9.43;5.90;;;;;;;6.18;80.00;96801.44;4995466;28;20029;-62
2022/05/05 01:52:24;;;;;;;8.73;5.40;;;;;;;6.15;79.12;96805.84;4995626;28;20015;-63
2022/05/05 01:54:50;;;;;;;6.90;5.47;;;;;;;6.16;79.25;96803.22;4995589;28;20029;-64
2022/05/05 01:57:15;;;;;;;6.82;5.00;;;;;;;6.17;79.24;96799.72;4995592;28;20114;-63
2022/05/05 01:59:40;;;;;;;6.25;5.30;;;;;;;6.22;79.37;96804.00;4995566;28;20133;-65
2022/05/05 02:02:06;;;;;;;7.70;5.97;;;;;;;6.25;79.26;96799.63;4995378;28;20014;-62
2022/05/05 02:04:31;;;;;;;6.32;5.72;;;;;;;6.21;79.29;96802.28;4995378;28;20026;-62
2022/05/05 02:06:57;;;;;;;6.93;5.80;;;;;;;6.23;79.72;96803.97;4995298;28;20019;-65
2022/05/05 02:09:23;;;;;;;6.82;6.07;;;;;;;6.24;79.24;96795.31;4995244;28;20030;-62
2022/05/05 02:11:48;;;;;;;5.93;5.07;;;;;;;6.23;78.40;96801.38;4995231;28;20026;-63
2022/05/05 02:14:14;;;;;;;9.35;5.35;;;;;;;6.15;78.50;96800.66;4995224;28;20022;-65
2022/05/05 02:16:39;;;;;;;6.07;5.53;;;;;;;6.11;78.71;96804.19;4995261;28;20026;-65
2022/05/05 02:19:05;;;;;;;6.60;5.65;;;;;;;6.05;79.11;96803.38;4995220;28;20033;-64
2022/05/05 02:21:30;;;;;;;9.35;5.93;;;;;;;6.07;79.99;96806.84;4995068;28;20362;-64
2022/05/05 02:23:56;;;;;;;6.18;5.57;;;;;;;6.06;79.39;96812.88;4994676;28;20082;-62
2022/05/05 02:26:21;;;;;;;5.80;5.13;;;;;;;6.06;79.20;96807.69;4994962;28;20030;-65
2022/05/05 02:28:49;;;;;;;6.50;5.90;;;;;;;6.11;78.83;96812.81;4994861;28;20034;-65
2022/05/05 02:31:15;;;;;;;7.30;5.85;;;;;;;6.10;79.18;96818.03;4995050;28;20026;-63
2022/05/05 02:33:41;;;;;;;7.03;5.60;;;;;;;6.10;78.50;96815.44;4994903;28;20515;-65
2022/05/05 02:38:50;;;;;;;8.50;5.57;;;;;;;5.97;78.28;96823.41;4994786;28;20073;-63
2022/05/05 02:41:16;;;;;;;6.70;5.32;;;;;;;5.96;78.46;96819.06;4994796;28;20054;-63
2022/05/05 02:43:42;;;;;;;6.72;5.05;;;;;;;5.86;78.86;96823.56;4994378;28;20046;-65
2022/05/05 02:46:07;;;;;;;8.30;5.40;;;;;;;5.85;79.32;96820.97;4994596;28;20029;-64
2022/05/05 02:48:33;;;;;;;6.05;5.35;;;;;;;5.87;78.93;96820.06;4994491;28;20481;-64
2022/05/05 02:50:59;;;;;;;7.47;5.18;;;;;;;5.77;79.11;96821.94;4994581;28;20058;-63
2022/05/05 02:56:08;;;;;;;10.13;5.85;;;;;;;5.74;79.17;96822.00;4994502;28;20084;-64
2022/05/05 02:58:34;;;;;;;6.00;5.40;;;;;;;5.73;79.52;96816.81;4994309;28;20027;-65
2022/05/05 03:00:59;;;;;;;6.60;5.82;;;;;;;5.67;79.82;96821.25;4994431;28;20026;-65
2022/05/05 03:03:25;;;;;;;6.25;5.65;;;;;;;5.71;80.09;96828.97;4994248;28;20050;-63
2022/05/05 03:05:50;;;;;;;6.88;5.57;;;;;;;5.75;80.04;96830.66;4994253;28;20037;-64
2022/05/05 03:08:16;;;;;;;7.25;5.55;;;;;;;5.78;80.02;96839.25;4994288;28;20034;-63
2022/05/05 03:10:41;;;;;;;6.55;5.65;;;;;;;5.76;79.58;96838.41;4994470;28;20036;-63
2022/05/05 03:13:07;;;;;;;5.82;4.72;;;;;;;5.80;79.90;96841.81;4994151;28;20052;-63
2022/05/05 03:15:32;;;;;;;6.80;5.72;;;;;;;5.83;79.78;96844.38;4994153;28;20152;-65
2022/05/05 03:17:58;;;;;;;8.35;5.15;;;;;;;5.90;79.30;96852.94;4993939;28;20521;-64
2022/05/05 03:20:24;;;;;;;6.00;5.38;;;;;;;5.89;78.96;96851.22;4994035;28;20032;-63
2022/05/05 03:22:50;;;;;;;7.65;5.80;;;;;;;5.89;79.03;96846.00;4994147;28;20080;-64
2022/05/05 03:25:16;;;;;;;12.35;5.70;;;;;;;5.93;79.12;96845.94;4993908;28;20026;-65
2022/05/05 03:27:41;;;;;;;7.32;5.50;;;;;;;5.98;79.14;96853.69;4993795;28;20388;-63
2022/05/05 03:30:07;;;;;;;8.02;6.18;;;;;;;5.93;79.09;96858.09;4993859;28;20022;-63
2022/05/05 03:32:33;;;;;;;7.50;6.80;;;;;;;5.96;80.23;96859.78;4993917;28;20022;-65
2022/05/05 03:34:59;;;;;;;7.38;6.57;;;;;;;5.97;80.36;96861.50;4993793;28;20084;-63
2022/05/05 03:37:28;;;;;;;6.75;5.95;;;;;;;5.98;79.76;96864.06;4993115;28;20157;-65
2022/05/05 03:39:54;;;;;;;5.65;4.80;;;;;;;5.98;79.98;96869.25;4993901;28;20034;-62
2022/05/05 03:42:20;;;;;;;7.15;6.45;;;;;;;6.03;80.40;96872.66;4993822;28;20043;-62
2022/05/05 03:44:45;;;;;;;6.80;4.72;;;;;;;6.11;79.11;96866.53;4993545;28;20838;-63
2022/05/05 03:47:11;;;;;;;4.90;4.50;;;;;;;6.19;78.49;96864.66;4993709;28;20038;-65
2022/05/05 03:49:37;;;;;;;5.70;5.13;;;;;;;6.35;78.81;96867.88;4993539;28;20031;-64
2022/05/05 03:52:03;;;;;;;4.82;4.40;;;;;;;6.73;77.61;96875.94;4993521;28;20031;-64
2022/05/05 03:54:29;;;;;;;4.95;4.45;;;;;;;7.20;75.53;96870.72;4993590;28;20096;-64
2022/05/05 03:56:54;;;;;;;5.30;4.32;;;;;;;7.70;74.44;96874.09;4993654;28;20476;-64
2022/05/05 03:59:22;;;;;;;6.70;4.40;;;;;;;8.13;73.59;96876.66;4993559;28;20061;-64
2022/05/05 04:01:48;;;;;;;7.88;4.47;;;;;;;8.58;72.42;96878.25;4993427;28;20027;-64
2022/05/05 04:04:14;;;;;;;9.63;3.90;;;;;;;9.00;71.57;96874.56;4993610;28;20080;-63
2022/05/05 04:06:39;;;;;;;8.23;3.30;;;;;;;9.47;70.11;96881.16;4993481;28;20416;-62
2022/05/05 04:09:05;;;;;;;7.40;3.33;;;;;;;9.92;69.49;96873.78;4993489;28;20082;-62
2022/05/05 04:11:31;;;;;;;4.47;3.60;;;;;;;10.37;66.46;96877.63;4993426;28;20023;-63
2022/05/05 04:13:57;;;;;;;3.22;2.90;;;;;;;10.79;64.53;96883.31;4993566;28;20026;-63
2022/05/05 04:16:22;;;;;;;3.55;3.10;;;;;;;11.12;63.89;96888.31;4993497;28;20413;-64
2022/05/05 04:18:48;;;;;;;4.10;2.72;;;;;;;11.34;63.67;96875.31;4993309;28;20106;-65
2022/05/05 04:21:13;;;;;;;4.82;3.13;;;;;;;11.71;63.08;96882.75;4993323;28;20093;-64
2022/05/05 04:23:39;;;;;;;3.00;2.80;;;;;;;12.07;62.73;96887.53;4993406;28;20054;-63
2022/05/05 04:26:05;;;;;;;3.22;2.92;;;;;;;12.44;61.72;96887.88;4993385;28;20026;-64
2022/05/05 04:28:31;;;;;;;3.20;2.90;;;;;;;12.79;60.05;96887.31;4993373;28;20027;-62
2022/05/05 04:30:57;;;;;;;4.53;2.60;;;;;;;13.04;60.00;96893.31;4993379;28;20023;-61
2022/05/05 04:33:23;;;;;;;4.15;2.90;;;;;;;13.35;59.27;96890.22;4975852;28;20366;-64
2022/05/05 04:35:49;;;;;;;3.38;3.08;;;;;;;13.61;59.09;96890.88;4993240;28;20063;-61
2022/05/05 04:38:16;;;;;;;3.53;3.05;;;;;;;13.94;58.54;96896.47;4993295;28;20477;-62
2022/05/05 04:40:41;;;;;;;3.65;2.97;;;;;;;14.19;57.80;96893.53;4993256;28;20087;-64
2022/05/05 04:43:07;;;;;;;3.40;2.80;;;;;;;14.42;57.22;96899.47;4993056;28;20108;-61
2022/05/05 04:45:32;;;;;;;2.90;2.65;;;;;;;14.68;56.69;96897.38;4993201;28;20029;-63
2022/05/05 04:47:58;;;;;;;5.13;2.60;;;;;;;14.90;56.23;96899.81;4994833;28;20022;-62
2022/05/05 04:50:24;;;;;;;8.77;3.25;;;;;;;14.82;55.74;96903.75;4996836;28;20030;-63
2022/05/05 04:52:51;;;;;;;3.95;3.10;;;;;;;14.62;56.23;96903.78;4996801;28;20476;-63
2022/05/05 04:55:17;;;;;;;3.22;2.92;;;;;;;14.37;57.26;96901.47;4996614;28;20023;-64
2022/05/05 04:57:42;;;;;;;5.75;3.10;;;;;;;14.12;57.89;96898.22;4996764;28;20030;-63
2022/05/05 05:00:09;;;;;;;6.72;3.45;;;;;;;13.89;58.87;96907.19;4996465;28;20535;-63
2022/05/05 05:02:35;;;;;;;5.55;3.30;;;;;;;13.64;60.07;96903.88;4996566;28;20057;-65
2022/05/05 05:05:01;;;;;;;3.40;3.10;;;;;;;13.43;60.75;96908.31;4996623;28;20069;-65
2022/05/05 05:07:26;;;;;;;5.80;3.40;;;;;;;13.23;61.93;96909.16;4996411;28;20022;-63
2022/05/05 05:09:52;;;;;;;3.80;3.08;;;;;;;13.04;62.80;96907.31;4996274;28;20030;-64
2022/05/05 05:12:17;;;;;;;6.70;3.50;;;;;;;12.96;63.73;96907.63;4996515;28;20038;-63
2022/05/05 05:14:43;;;;;;;9.43;4.20;;;;;;;12.93;63.84;96901.66;4996378;28;20476;-64
2022/05/05 05:17:09;;;;;;;7.13;3.63;;;;;;;12.89;64.61;96907.03;4996300;28;20061;-63
2022/05/05 05:19:34;;;;;;;6.65;3.60;;;;;;;13.00;65.42;96903.97;4996340;28;20030;-62
2022/05/05 05:22:00;;;;;;;4.35;3.75;;;;;;;13.49;66.00;96901.91;4996081;28;20022;-62
2022/05/05 05:24:25;;;;;;;3.10;2.80;;;;;;;13.74;64.23;96900.84;4996162;28;20025;-63
2022/05/05 05:26:51;;;;;;;2.85;2.65;;;;;;;13.74;63.42;96906.09;4996157;28;20034;-63
2022/05/05 05:29:16;;;;;;;4.47;3.15;;;;;;;13.80;63.63;96907.59;4996042;28;20030;-64
2022/05/05 05:31:42;;;;;;;5.15;3.10;;;;;;;14.15;63.58;96908.59;4995988;28;20023;-63
2022/05/05 05:34:08;;;;;;;3.47;2.70;;;;;;;14.61;62.92;96906.50;4995981;28;20102;-63
2022/05/05 05:36:33;;;;;;;4.70;3.13;;;;;;;15.01;63.09;96909.81;4996032;28;20033;-65
2022/05/05 05:38:59;;;;;;;2.92;2.63;;;;;;;15.61;61.32;96906.81;4978541;28;20034;-62
2022/05/05 05:41:25;;;;;;;3.40;2.92;;;;;;;16.29;59.84;96910.28;4995947;28;20018;-64
2022/05/05 05:43:51;;;;;;;3.78;2.97;;;;;;;16.91;58.29;96911.22;4995565;28;20043;-63
2022/05/05 05:46:16;;;;;;;6.88;2.63;;;;;;;17.38;59.54;96913.84;4995642;28;20076;-64
2022/05/05 05:48:42;;;;;;;3.55;2.70;;;;;;;17.82;57.44;96912.06;4995682;28;20030;-64
2022/05/05 05:51:07;;;;;;;3.67;2.50;;;;;;;18.26;56.92;96914.72;4995656;28;20097;-64
2022/05/05 05:53:34;;;;;;;2.45;2.25;;;;;;;18.72;54.73;96920.66;4995745;28;20030;-62
2022/05/05 05:55:59;;;;;;;5.53;2.58;;;;;;;19.18;54.59;96912.31;4995583;28;20033;-62
2022/05/05 05:58:25;;;;;;;2.67;2.45;;;;;;;19.60;51.42;96911.31;4995306;28;20030;-62
2022/05/05 06:00:50;;;;;;;3.08;2.83;;;;;;;19.86;50.96;96913.13;4995025;28;20030;-63
2022/05/05 06:06:00;;;;;;;7.70;3.10;;;;;;;20.35;51.18;96919.44;4995475;28;20033;-64
2022/05/05 06:08:26;;;;;;;3.20;2.90;;;;;;;20.39;48.67;96912.06;4995201;28;20019;-62
2022/05/05 06:10:52;;;;;;;2.88;2.55;;;;;;;20.25;49.89;96921.88;4995354;28;20026;-64
2022/05/05 06:13:18;;;;;;;4.57;2.88;;;;;;;20.27;48.18;96913.81;4995240;28;20026;-63
2022/05/05 06:15:44;;;;;;;5.72;2.75;;;;;;;20.20;48.66;96922.22;4995235;28;20165;-62
2022/05/05 06:18:09;;;;;;;5.75;2.92;;;;;;;20.54;48.71;96923.41;4995184;28;20450;-62
2022/05/05 06:20:35;;;;;;;3.00;2.53;;;;;;;20.73;49.46;96917.59;4995121;28;20413;-62
2022/05/05 06:23:01;;;;;;;4.35;2.75;;;;;;;21.03;49.23;96918.97;4995048;28;20033;-64
2022/05/05 06:25:26;;;;;;;5.43;2.88;;;;;;;21.24;48.12;96923.63;4994956;28;20022;-62
2022/05/05 06:27:53;;;;;;;6.47;2.70;;;;;;;21.50;47.63;96926.13;4995033;28;20101;-63
2022/05/05 06:30:18;;;;;;;4.75;2.65;;;;;;;21.79;46.07;96922.22;4994757;28;20476;-63
2022/05/05 06:32:45;;;;;;;3.55;2.80;;;;;;;22.12;44.68;96920.50;4994820;28;20113;-62
2022/05/05 06:35:12;;;;;;;2.90;2.63;;;;;;;22.36;43.38;96916.84;4994811;28;20045;-62
2022/05/05 06:37:37;;;;;;;4.95;2.38;;;;;;;22.70;42.30;96913.31;4994777;28;20077;-62
2022/05/05 06:40:05;;;;;;;2.40;2.20;;;;;;;23.02;42.22;96912.44;4994665;28;20026;-62
2022/05/05 06:42:30;;;;;;;3.80;2.35;;;;;;;23.20;41.27;96912.72;4994625;28;20476;-63
2022/05/05 06:44:57;;;;;;;3.00;2.25;;;;;;;23.53;41.58;96910.03;4994465;28;20077;-62
2022/05/05 06:47:24;;;;;;;3.63;2.08;;;;;;;23.67;38.96;96913.34;4994597;28;20396;-62
2022/05/05 06:49:49;;;;;;;3.58;2.28;;;;;;;24.07;39.67;96915.22;4994434;28;20026;-62
2022/05/05 06:52:15;;;;;;;2.58;2.15;;;;;;;24.36;39.11;96922.50;4994454;28;20023;-62
2022/05/05 06:54:40;;;;;;;2.70;2.20;;;;;;;24.45;40.03;96912.00;4994619;28;20023;-62
2022/05/05 06:57:06;;;;;;;5.60;2.10;;;;;;;24.70;37.66;96913.31;4994423;28;20097;-62
2022/05/05 06:59:31;;;;;;;2.65;2.03;;;;;;;24.74;36.80;96917.38;4994289;28;20487;-63
2022/05/05 07:02:06;;;;;;;2.38;2.15;;;;;;;24.61;34.89;96920.34;4994326;28;20077;-62
2022/05/05 07:07:19;;;;;;;2.15;1.98;;;;;;;24.30;35.21;96928.41;4994669;28;20033;-61
2022/05/05 07:12:32;;;;;;;2.75;1.95;;;;;;;23.71;35.48;96936.13;4993821;28;20041;-63
2022/05/05 07:14:58;;;;;;;2.97;2.10;;;;;;;23.76;34.78;96939.25;4994231;28;20061;-62
2022/05/05 07:17:24;;;;;;;3.35;2.08;;;;;;;23.90;33.08;96934.56;4994165;28;20115;-63
2022/05/05 07:19:51;;;;;;;4.63;2.10;;;;;;;24.01;34.00;96939.78;4994110;28;20030;-61
2022/05/05 07:22:16;;;;;;;2.38;1.95;;;;;;;23.96;34.45;96950.06;4994040;28;20030;-61
2022/05/05 07:24:42;;;;;;;6.40;2.00;;;;;;;24.09;34.43;96937.31;4993931;28;20085;-62
2022/05/05 07:27:08;;;;;;;3.08;2.30;;;;;;;24.14;34.45;96944.94;4993966;28;20022;-62
2022/05/05 07:29:34;;;;;;;2.95;1.88;;;;;;;24.04;33.03;96949.34;4993818;28;20022;-61
2022/05/05 07:32:00;;;;;;;2.28;1.73;;;;;;;23.95;33.28;96943.84;4993843;28;20058;-60
2022/05/05 07:34:26;;;;;;;3.33;2.05;;;;;;;23.90;32.38;96948.72;4993851;28;20058;-62
2022/05/05 07:36:52;;;;;;;3.83;1.75;;;;;;;23.91;33.79;96950.44;4993803;28;20026;-60
2022/05/05 07:39:17;;;;;;;4.10;1.98;;;;;;;23.68;32.09;96952.41;4993776;28;20022;-62
2022/05/05 07:41:44;;;;;;;5.28;1.80;;;;;;;23.58;33.28;96949.69;4994013;28;20448;-61
2022/05/05 07:44:10;;;;;;;3.58;2.00;;;;;;;22.81;33.45;96950.59;4993535;28;20065;-62
2022/05/05 07:46:36;;;;;;;1.80;1.70;;;;;;;22.48;33.99;96954.97;4993767;28;20033;-63
2022/05/05 07:49:04;;;;;;;3.45;1.95;;;;;;;22.45;34.67;96950.75;4993607;28;20455;-63
2022/05/05 07:51:30;;;;;;;4.88;2.15;;;;;;;22.54;34.88;96961.63;4993740;28;20026;-61
2022/05/05 07:56:41;;;;;;;6.72;1.90;;;;;;;22.44;35.90;96956.19;4994119;28;20092;-61
2022/05/05 07:59:07;;;;;;;3.25;2.17;;;;;;;22.47;35.41;96956.81;4993544;28;20018;-62
2022/05/05 08:01:33;;;;;;;3.65;2.03;;;;;;;22.71;35.80;96950.50;4993564;28;20373;-63
2022/05/05 08:03:58;;;;;;;2.65;1.90;;;;;;;22.79;33.34;96951.69;4993566;28;20019;-62
2022/05/05 08:06:24;;;;;;;5.00;1.77;;;;;;;22.31;33.20;96956.34;4993478;28;20034;-61
2022/05/05 08:08:50;;;;;;;2.83;1.85;;;;;;;22.39;33.32;96955.75;4993640;28;20090;-62
2022/05/05 08:11:16;;;;;;;5.57;1.98;;;;;;;22.71;33.83;96963.84;4976089;28;20018;-61
2022/05/05 08:13:41;;;;;;;2.58;1.67;;;;;;;22.90;33.33;96950.81;4993498;28;20033;-60
2022/05/05 08:16:08;;;;;;;4.75;1.80;;;;;;;22.44;33.65;96962.38;4993533;28;20429;-62
2022/05/05 08:18:34;;;;;;;2.17;1.83;;;;;;;21.99;35.66;96965.03;4993404;28;20412;-65
2022/05/05 08:20:59;;;;;;;2.20;1.88;;;;;;;21.35;35.94;96968.03;4993554;28;20033;-63
2022/05/05 08:23:25;;;;;;;3.58;2.10;;;;;;;21.24;36.98;96968.84;4995972;28;20057;-64
2022/05/05 08:28:36;;;;;;;3.83;1.75;;;;;;;21.21;37.63;96975.25;4997368;28;20041;-63
2022/05/05 08:31:03;;;;;;;4.80;1.75;;;;;;;21.18;35.57;96964.84;4997142;28;20121;-64
2022/05/05 08:33:29;;;;;;;2.17;1.63;;;;;;;21.34;36.12;96968.97;4997166;28;20037;-61
2022/05/05 08:35:57;;;;;;;6.70;2.53;;;;;;;21.17;37.89;96975.59;4997168;28;20030;-62
2022/05/05 08:38:23;;;;;;;7.75;2.20;;;;;;;20.51;37.59;96966.13;4997115;28;20034;-63
2022/05/05 08:40:50;;;;;;;2.88;1.75;;;;;;;20.74;37.21;96971.59;4997011;28;20019;-63
2022/05/05 08:43:16;;;;;;;4.68;2.30;;;;;;;21.15;36.58;96970.38;4996874;28;20473;-64
2022/05/05 08:45:45;;;;;;;2.45;1.77;;;;;;;21.52;36.62;96965.91;4996926;28;20054;-64
2022/05/05 08:48:12;;;;;;;3.30;2.00;;;;;;;21.77;36.08;96974.72;4996816;28;20030;-65
2022/05/05 08:50:40;;;;;;;4.68;2.10;;;;;;;21.86;35.05;96981.13;4996726;28;20034;-65
2022/05/05 08:53:07;;;;;;;6.25;1.80;;;;;;;21.95;37.64;96978.59;4996709;28;20019;-62
2022/05/05 08:55:33;;;;;;;2.17;1.80;;;;;;;21.67;35.77;96986.03;4996646;28;20026;-64
2022/05/05 08:58:01;;;;;;;3.65;1.95;;;;;;;21.24;36.48;96976.81;4996695;28;20026;-61
2022/05/05 09:00:27;;;;;;;3.65;2.03;;;;;;;20.96;36.18;96981.53;4996762;28;20037;-63
2022/05/05 09:03:00;;;;;;;2.72;2.20;;;;;;;20.74;36.65;96979.56;4996541;28;20054;-64
2022/05/05 09:05:44;;;;;;;3.00;2.10;;;;;;;20.71;37.88;96980.66;4996599;28;20034;-62
2022/05/05 09:08:13;;;;;;;5.72;2.50;;;;;;;20.62;40.68;96984.78;4996365;28;20480;-64
2022/05/05 09:10:44;;;;;;;8.40;3.47;;;;;;;20.52;42.28;96983.75;4996382;28;20037;-62
2022/05/05 09:13:10;;;;;;;8.15;3.40;;;;;;;20.22;43.15;96983.19;4979034;28;20485;-63
2022/05/05 09:15:40;;;;;;;3.45;3.15;;;;;;;20.19;43.34;96981.59;4996393;28;20038;-63
2022/05/05 09:18:13;;;;;;;7.28;3.35;;;;;;;20.09;45.00;96972.59;4996410;28;20053;-62
2022/05/05 09:20:39;;;;;;;6.32;2.50;;;;;;;20.05;44.57;96982.56;4996275;28;20057;-64
2022/05/05 09:23:05;;;;;;;3.80;3.00;;;;;;;19.76;44.66;96981.91;4996194;28;20108;-61
2022/05/05 09:25:46;;;;;;;8.15;3.50;;;;;;;19.63;44.37;96992.50;4996196;28;20067;-64
2022/05/05 09:28:23;;;;;;;8.52;3.28;;;;;;;19.35;44.52;96991.72;4995976;28;20105;-65
2022/05/05 09:30:52;;;;;;;11.02;3.72;;;;;;;19.04;46.04;96994.53;4995988;28;20033;-64
2022/05/05 09:33:37;;;;;;;3.60;2.90;;;;;;;18.94;46.05;96995.13;4995663;28;20057;-62
2022/05/05 09:36:14;;;;;;;4.47;2.92;;;;;;;18.80;46.39;96988.09;4995830;28;20036;-62
2022/05/05 09:38:56;;;;;;;5.40;3.08;;;;;;;18.79;45.22;96985.56;4995908;28;20105;-61
2022/05/05 09:41:26;;;;;;;6.25;2.78;;;;;;;18.79;46.69;96990.84;4995891;28;20032;-62
2022/05/05 09:44:00;;;;;;;6.47;2.58;;;;;;;18.89;46.89;96997.25;4995654;28;20085;-62
2022/05/05 09:46:30;;;;;;;4.30;2.63;;;;;;;18.89;45.23;96996.38;4995944;28;20073;-63
2022/05/05 09:49:07;;;;;;;2.83;2.40;;;;;;;18.90;44.43;96993.66;4995704;28;20038;-63
2022/05/05 09:51:44;;;;;;;3.20;2.38;;;;;;;18.69;45.73;96995.88;4995641;28;20061;-63
2022/05/05 09:59:47;;;;;;;4.28;1.95;;;;;;;18.21;44.38;96996.22;4995869;28;20033;-65
2022/05/05 10:04:00;;;;;;;7.78;2.80;;;;;;;18.14;44.42;96990.44;4995458;28;20524;-63
2022/05/05 10:05:05;;;;;;;3.35;2.58;;;;;;;18.07;44.10;96997.91;4995471;28;20035;-63
2022/05/05 10:07:34;;;;;;;3.83;2.05;;;;;;;18.21;45.78;96998.88;4995527;28;20492;-63
2022/05/05 10:10:01;;;;;;;2.50;2.10;;;;;;;18.64;45.34;96996.19;4995391;28;20061;-66
2022/05/05 10:12:28;;;;;;;2.78;2.30;;;;;;;19.12;44.05;97004.69;4995342;28;20018;-62
2022/05/05 10:14:56;;;;;;;5.78;2.05;;;;;;;19.38;42.63;97000.31;4995196;28;20408;-62
2022/05/05 10:17:23;;;;;;;4.65;2.10;;;;;;;19.43;40.86;96998.22;4995235;28;20027;-64
2022/05/05 10:19:51;;;;;;;4.05;2.40;;;;;;;19.25;43.61;96991.47;4977774;28;20023;-63
2022/05/05 10:22:25;;;;;;;4.38;2.10;;;;;;;19.29;44.70;96992.94;4995110;28;20022;-62
2022/05/05 10:24:57;;;;;;;3.20;2.35;;;;;;;19.47;42.30;96993.53;4995175;28;20535;-63
2022/05/05 10:27:23;;;;;;;5.35;2.20;;;;;;;19.53;41.90;96993.13;4995329;28;20384;-64
2022/05/05 10:29:48;;;;;;;5.70;2.05;;;;;;;19.58;42.25;96995.47;4994846;28;20033;-65
2022/05/05 10:32:17;;;;;;;2.10;1.83;;;;;;;19.70;42.26;97002.59;4994940;28;20038;-65
2022/05/05 10:35:04;;;;;;;2.05;1.70;;;;;;;19.93;40.05;97007.28;4994877;28;20504;-63
2022/05/05 10:37:37;;;;;;;6.07;2.40;;;;;;;20.10;41.90;97013.28;4954959;28;20563;-66
2022/05/05 10:40:08;;;;;;;5.50;2.00;;;;;;;19.97;41.29;97018.53;4995002;28;20465;-66
2022/05/05 10:42:39;;;;;;;3.03;1.90;;;;;;;19.88;40.56;97020.88;4994831;28;20022;-64
2022/05/05 10:45:10;;;;;;;5.03;2.10;;;;;;;19.59;41.36;97021.03;4994418;28;20085;-66
2022/05/05 10:47:59;;;;;;;5.38;2.10;;;;;;;19.24;41.84;97021.59;4994682;28;20030;-63
2022/05/05 10:50:29;;;;;;;3.03;2.08;;;;;;;19.01;43.14;97023.91;4958257;28;20053;-63
2022/05/05 10:52:56;;;;;;;3.50;1.98;;;;;;;18.83;42.92;97029.44;4994539;28;20091;-64
2022/05/05 10:55:41;;;;;;;2.20;1.80;;;;;;;18.71;43.29;97038.16;4994477;28;20034;-66
2022/05/05 10:58:10;;;;;;;7.35;2.33;;;;;;;18.40;42.23;97031.22;4994686;28;20509;-65
2022/05/05 11:00:41;;;;;;;5.03;2.35;;;;;;;18.24;42.62;97033.13;4994476;28;20033;-63
2022/05/05 11:03:09;;;;;;;4.80;2.30;;;;;;;18.22;42.88;97032.34;4994443;28;20555;-62
2022/05/05 11:05:39;;;;;;;4.07;2.33;;;;;;;18.17;43.77;97041.44;4994378;28;20039;-64
2022/05/05 11:08:08;;;;;;;2.70;2.50;;;;;;;18.31;45.51;97037.91;4994511;28;20023;-66
2022/05/05 11:10:45;;;;;;;3.70;2.10;;;;;;;18.51;49.17;97053.53;4994217;28;20389;-65
2022/05/05 11:13:33;;;;;;;3.33;2.50;;;;;;;18.72;52.74;97045.19;4994201;28;20026;-63
2022/05/05 11:22:13;;;;;;;4.40;3.00;;;;;;;19.09;52.86;97049.94;4994217;28;20401;-66
2022/05/05 11:24:46;;;;;;;3.42;3.10;;;;;;;19.15;54.48;97046.91;4994183;28;20022;-64
2022/05/05 11:27:15;;;;;;;3.42;3.03;;;;;;;19.19;54.57;97045.75;4994065;28;20113;-65
2022/05/05 11:29:40;;;;;;;4.03;3.15;;;;;;;19.18;56.60;97039.59;4993825;28;20113;-65
2022/05/05 11:32:09;;;;;;;6.40;3.13;;;;;;;18.87;56.46;97052.16;4993848;28;20106;-65
2022/05/05 11:34:40;;;;;;;3.95;2.88;;;;;;;18.87;56.82;97046.84;4993920;28;20034;-65
2022/05/05 11:37:08;;;;;;;3.72;2.97;;;;;;;18.77;58.30;97045.72;4993826;28;20111;-63
2022/05/05 11:39:36;;;;;;;4.43;2.85;;;;;;;18.73;57.26;97052.19;4993874;28;20034;-66
2022/05/05 11:42:07;;;;;;;8.45;2.70;;;;;;;18.81;57.27;97044.59;4993806;28;20042;-64
2022/05/05 11:44:37;;;;;;;3.63;2.97;;;;;;;18.76;56.93;97049.34;4993502;28;20058;-63
2022/05/05 11:47:11;;;;;;;7.38;2.90;;;;;;;18.91;56.25;97044.88;4993833;28;20601;-62
2022/05/05 11:49:37;;;;;;;3.22;2.78;;;;;;;18.85;57.92;97043.47;4993654;28;20499;-65
2022/05/05 11:52:04;;;;;;;5.13;2.78;;;;;;;18.96;58.03;97047.22;4993706;28;20061;-62
2022/05/05 11:54:34;;;;;;;3.78;2.90;;;;;;;19.19;58.02;97036.00;4993578;28;20078;-63
2022/05/05 11:57:01;;;;;;;3.92;2.75;;;;;;;19.24;55.89;97034.84;4995043;28;20019;-64
2022/05/05 12:02:15;;;;;;;8.63;2.90;;;;;;;19.35;54.27;97036.81;5000536;28;20081;-64
2022/05/05 12:04:42;;;;;;;4.45;3.03;;;;;;;19.63;51.14;97033.13;5000172;28;20057;-65
2022/05/05 12:07:10;;;;;;;2.78;2.28;;;;;;;19.74;49.97;97036.91;5000025;28;20145;-64
2022/05/05 12:09:37;;;;;;;2.20;2.10;;;;;;;19.90;48.68;97040.19;4999939;28;20125;-65
2022/05/05 12:12:14;;;;;;;4.47;2.20;;;;;;;20.00;47.20;97039.56;5000080;28;20037;-64
2022/05/05 12:14:42;;;;;;;2.47;2.28;;;;;;;20.02;50.11;97038.53;5000195;28;20113;-63
2022/05/05 12:17:12;;;;;;;5.78;2.42;;;;;;;19.94;48.49;97039.03;5000055;28;20026;-64
2022/05/05 12:19:50;;;;;;;2.83;2.38;;;;;;;19.87;48.10;97029.78;4982503;28;20125;-66
2022/05/05 12:22:28;;;;;;;7.05;2.55;;;;;;;19.66;47.18;97026.78;5000095;28;20058;-63